sensor_id;sensor_type;location;lat;lon;timestamp;temperature;humidity
4207;DHT22;2117;47.972;7.830;2022-09-21T03:31:23;8.00;99.90
4207;DHT22;2117;47.972;7.830;2022-09-21T03:33:48;8.00;99.90
4207;DHT22;2117;47.972;7.830;2022-09-21T03:36:14;8.00;99.90
4207;DHT22;2117;47.972;7.830;2022-09-21T03:38:39;8.00;99.90
4207;DHT22;2117;47.972;7.830;2022-09-21T03:41:05;8.00;99.90
4207;DHT22;2117;47.972;7.830;2022-09-21T03:43:31;8.10;99.90
4207;DHT22;2117;47.972;7.830;2022-09-21T03:45:57;8.10;99.90
4207;DHT22;2117;47.972;7.830;2022-09-21T03:48:23;8.00;99.90
4207;DHT22;2117;47.972;7.830;2022-09-21T03:50:49;8.00;99.90
4207;DHT22;2117;47.972;7.830;2022-09-21T03:53:16;8.00;99.90
4207;DHT22;2117;47.972;7.830;2022-09-21T03:55:41;8.00;99.90
4207;DHT22;2117;47.972;7.830;2022-09-21T03:58:07;7.90;99.90
4207;DHT22;2117;47.972;7.830;2022-09-21T04:00:34;7.90;99.90
4207;DHT22;2117;47.972;7.830;2022-09-21T04:03:00;7.90;99.90
4207;DHT22;2117;47.972;7.830;2022-09-21T04:05:26;7.90;99.90
4207;DHT22;2117;47.972;7.830;2022-09-21T04:07:53;7.90;99.90
4207;DHT22;2117;47.972;7.830;2022-09-21T04:10:20;7.90;99.90
4207;DHT22;2117;47.972;7.830;2022-09-21T04:12:51;7.90;99.90
4207;DHT22;2117;47.972;7.830;2022-09-21T04:15:18;7.80;99.90
4207;DHT22;2117;47.972;7.830;2022-09-21T04:17:45;7.80;99.90
4207;DHT22;2117;47.972;7.830;2022-09-21T04:20:11;7.80;99.90
4207;DHT22;2117;47.972;7.830;2022-09-21T04:22:37;7.80;99.90
4207;DHT22;2117;47.972;7.830;2022-09-21T04:25:05;7.70;99.90
4207;DHT22;2117;47.972;7.830;2022-09-21T04:27:32;7.80;99.90
4207;DHT22;2117;47.972;7.830;2022-09-21T04:29:58;7.70;99.90
4207;DHT22;2117;47.972;7.830;2022-09-21T04:32:24;7.70;99.90
4207;DHT22;2117;47.972;7.830;2022-09-21T04:37:15;7.70;99.90
4207;DHT22;2117;47.972;7.830;2022-09-21T04:39:41;7.70;99.90
4207;DHT22;2117;47.972;7.830;2022-09-21T04:42:08;7.70;99.90
4207;DHT22;2117;47.972;7.830;2022-09-21T04:44:34;7.70;99.90
4207;DHT22;2117;47.972;7.830;2022-09-21T04:46:59;7.60;99.90
4207;DHT22;2117;47.972;7.830;2022-09-21T04:49:25;7.60;99.90
4207;DHT22;2117;47.972;7.830;2022-09-21T04:51:51;7.60;99.90
4207;DHT22;2117;47.972;7.830;2022-09-21T04:54:16;7.50;99.90
4207;DHT22;2117;47.972;7.830;2022-09-21T04:56:42;7.50;99.90
4207;DHT22;2117;47.972;7.830;2022-09-21T04:59:07;7.50;99.90
4207;DHT22;2117;47.972;7.830;2022-09-21T05:01:33;7.40;99.90
4207;DHT22;2117;47.972;7.830;2022-09-21T05:03:59;7.40;99.90
4207;DHT22;2117;47.972;7.830;2022-09-21T05:06:30;7.30;99.90
4207;DHT22;2117;47.972;7.830;2022-09-21T05:08:56;7.30;99.90
4207;DHT22;2117;47.972;7.830;2022-09-21T05:11:40;7.30;99.90
4207;DHT22;2117;47.972;7.830;2022-09-21T05:14:06;7.30;99.90
4207;DHT22;2117;47.972;7.830;2022-09-21T05:16:32;7.30;99.90
4207;DHT22;2117;47.972;7.830;2022-09-21T05:18:57;7.30;99.90
4207;DHT22;2117;47.972;7.830;2022-09-21T05:21:23;7.30;99.90
4207;DHT22;2117;47.972;7.830;2022-09-21T05:23:49;7.30;99.90
4207;DHT22;2117;47.972;7.830;2022-09-21T05:26:15;7.30;99.90
4207;DHT22;2117;47.972;7.830;2022-09-21T05:28:40;7.30;99.90
4207;DHT22;2117;47.972;7.830;2022-09-21T05:39:11;7.20;99.90
4207;DHT22;2117;47.972;7.830;2022-09-21T05:41:37;7.20;99.90
4207;DHT22;2117;47.972;7.830;2022-09-21T05:44:03;7.20;99.90
4207;DHT22;2117;47.972;7.830;2022-09-21T05:46:39;7.20;99.90
4207;DHT22;2117;47.972;7.830;2022-09-21T05:49:21;7.10;99.90
4207;DHT22;2117;47.972;7.830;2022-09-21T06:00:16;7.10;99.90
4207;DHT22;2117;47.972;7.830;2022-09-21T06:05:37;7.20;99.90
4207;DHT22;2117;47.972;7.830;2022-09-21T06:08:03;7.20;99.90
4207;DHT22;2117;47.972;7.830;2022-09-21T06:10:32;7.20;99.90
4207;DHT22;2117;47.972;7.830;2022-09-21T06:12:58;7.20;99.90
4207;DHT22;2117;47.972;7.830;2022-09-21T06:15:24;7.20;99.90
4207;DHT22;2117;47.972;7.830;2022-09-21T06:17:50;7.30;99.90
4207;DHT22;2117;47.972;7.830;2022-09-21T06:20:16;7.20;99.90
4207;DHT22;2117;47.972;7.830;2022-09-21T06:22:42;7.20;99.90
4207;DHT22;2117;47.972;7.830;2022-09-21T06:25:07;7.20;99.90
4207;DHT22;2117;47.972;7.830;2022-09-21T06:27:33;7.20;99.90
4207;DHT22;2117;47.972;7.830;2022-09-21T06:29:59;7.30;99.90
4207;DHT22;2117;47.972;7.830;2022-09-21T06:32:25;7.30;99.90
4207;DHT22;2117;47.972;7.830;2022-09-21T06:34:50;7.30;99.90
4207;DHT22;2117;47.972;7.830;2022-09-21T06:37:16;7.30;99.90
4207;DHT22;2117;47.972;7.830;2022-09-21T06:39:41;7.40;99.90
4207;DHT22;2117;47.972;7.830;2022-09-21T06:42:07;7.40;99.90
4207;DHT22;2117;47.972;7.830;2022-09-21T06:44:32;7.40;99.90
4207;DHT22;2117;47.972;7.830;2022-09-21T06:46:58;7.40;99.90
4207;DHT22;2117;47.972;7.830;2022-09-21T06:49:24;7.50;99.90
4207;DHT22;2117;47.972;7.830;2022-09-21T06:51:53;7.50;99.90
4207;DHT22;2117;47.972;7.830;2022-09-21T06:54:19;7.50;99.90
4207;DHT22;2117;47.972;7.830;2022-09-21T06:56:44;7.60;99.90
4207;DHT22;2117;47.972;7.830;2022-09-21T06:59:10;7.70;99.90
4207;DHT22;2117;47.972;7.830;2022-09-21T07:01:35;7.70;99.90
4207;DHT22;2117;47.972;7.830;2022-09-21T07:04:01;7.80;99.90
4207;DHT22;2117;47.972;7.830;2022-09-21T07:06:26;7.90;99.90
4207;DHT22;2117;47.972;7.830;2022-09-21T07:08:53;7.90;99.90
4207;DHT22;2117;47.972;7.830;2022-09-21T07:11:19;8.00;99.90
4207;DHT22;2117;47.972;7.830;2022-09-21T07:13:46;8.00;99.90
4207;DHT22;2117;47.972;7.830;2022-09-21T07:16:11;8.10;99.90
4207;DHT22;2117;47.972;7.830;2022-09-21T07:18:39;8.20;99.90
4207;DHT22;2117;47.972;7.830;2022-09-21T07:21:07;8.40;99.90
4207;DHT22;2117;47.972;7.830;2022-09-21T07:23:34;8.50;99.90
4207;DHT22;2117;47.972;7.830;2022-09-21T07:26:10;8.60;99.90
4207;DHT22;2117;47.972;7.830;2022-09-21T07:28:36;8.70;99.90
4207;DHT22;2117;47.972;7.830;2022-09-21T07:31:10;8.80;99.90
4207;DHT22;2117;47.972;7.830;2022-09-21T07:33:36;8.90;99.90
4207;DHT22;2117;47.972;7.830;2022-09-21T07:36:03;9.00;99.90
4207;DHT22;2117;47.972;7.830;2022-09-21T07:38:36;9.10;99.90
4207;DHT22;2117;47.972;7.830;2022-09-21T07:41:01;9.10;99.90
4207;DHT22;2117;47.972;7.830;2022-09-21T07:43:27;9.30;99.90
4207;DHT22;2117;47.972;7.830;2022-09-21T07:45:53;9.40;99.90
4207;DHT22;2117;47.972;7.830;2022-09-21T07:48:22;9.50;99.90
4207;DHT22;2117;47.972;7.830;2022-09-21T07:50:49;9.50;99.90
4207;DHT22;2117;47.972;7.830;2022-09-21T07:53:14;9.60;99.90
4207;DHT22;2117;47.972;7.830;2022-09-21T07:55:43;9.80;99.90
4207;DHT22;2117;47.972;7.830;2022-09-21T07:58:09;9.90;99.90
4207;DHT22;2117;47.972;7.830;2022-09-21T08:00:53;10.00;99.90
4207;DHT22;2117;47.972;7.830;2022-09-21T08:03:19;10.10;99.90
4207;DHT22;2117;47.972;7.830;2022-09-21T08:05:44;10.10;99.90
4207;DHT22;2117;47.972;7.830;2022-09-21T08:08:10;10.20;99.90
4207;DHT22;2117;47.972;7.830;2022-09-21T08:10:35;10.30;99.90
4207;DHT22;2117;47.972;7.830;2022-09-21T08:13:01;10.40;99.90
4207;DHT22;2117;47.972;7.830;2022-09-21T08:15:27;10.40;99.90
4207;DHT22;2117;47.972;7.830;2022-09-21T08:17:53;10.60;99.90
4207;DHT22;2117;47.972;7.830;2022-09-21T08:20:19;10.70;99.90
4207;DHT22;2117;47.972;7.830;2022-09-21T08:22:46;10.70;99.90
4207;DHT22;2117;47.972;7.830;2022-09-21T08:25:11;10.80;99.90
4207;DHT22;2117;47.972;7.830;2022-09-21T08:27:37;10.90;99.90
4207;DHT22;2117;47.972;7.830;2022-09-21T08:30:05;11.00;99.90
4207;DHT22;2117;47.972;7.830;2022-09-21T08:32:32;11.00;99.90
4207;DHT22;2117;47.972;7.830;2022-09-21T08:34:57;11.10;99.90
4207;DHT22;2117;47.972;7.830;2022-09-21T08:37:23;11.10;99.90
4207;DHT22;2117;47.972;7.830;2022-09-21T08:39:48;11.20;99.90
4207;DHT22;2117;47.972;7.830;2022-09-21T08:42:41;11.20;99.90
4207;DHT22;2117;47.972;7.830;2022-09-21T08:45:14;11.30;99.90
4207;DHT22;2117;47.972;7.830;2022-09-21T08:47:52;11.40;99.90
4207;DHT22;2117;47.972;7.830;2022-09-21T08:53:10;11.50;99.90
4207;DHT22;2117;47.972;7.830;2022-09-21T08:55:36;11.60;99.90
4207;DHT22;2117;47.972;7.830;2022-09-21T08:58:02;11.70;99.90
4207;DHT22;2117;47.972;7.830;2022-09-21T09:00:29;11.80;99.90
4207;DHT22;2117;47.972;7.830;2022-09-21T09:19:57;12.50;99.90
4207;DHT22;2117;47.972;7.830;2022-09-21T09:22:30;12.70;99.90
4207;DHT22;2117;47.972;7.830;2022-09-21T09:25:03;12.90;99.90
4207;DHT22;2117;47.972;7.830;2022-09-21T09:27:35;12.90;99.90
4207;DHT22;2117;47.972;7.830;2022-09-21T09:30:23;13.00;99.90
4207;DHT22;2117;47.972;7.830;2022-09-21T09:33:05;13.10;99.90
4207;DHT22;2117;47.972;7.830;2022-09-21T09:35:51;13.20;99.90
4207;DHT22;2117;47.972;7.830;2022-09-21T09:38:28;13.30;99.90
4207;DHT22;2117;47.972;7.830;2022-09-21T09:44:13;13.50;99.90
4207;DHT22;2117;47.972;7.830;2022-09-21T09:46:48;13.60;99.90
4207;DHT22;2117;47.972;7.830;2022-09-21T09:51:51;13.80;99.90
4207;DHT22;2117;47.972;7.830;2022-09-21T09:54:17;13.90;99.90
4207;DHT22;2117;47.972;7.830;2022-09-21T09:56:46;14.00;99.90
4207;DHT22;2117;47.972;7.830;2022-09-21T09:59:30;14.10;99.90
4207;DHT22;2117;47.972;7.830;2022-09-21T10:04:35;14.40;99.90
4207;DHT22;2117;47.972;7.830;2022-09-21T10:07:18;14.50;99.90
4207;DHT22;2117;47.972;7.830;2022-09-21T10:09:44;14.60;99.90
4207;DHT22;2117;47.972;7.830;2022-09-21T10:12:28;14.70;99.90
4207;DHT22;2117;47.972;7.830;2022-09-21T10:14:56;14.90;99.90
4207;DHT22;2117;47.972;7.830;2022-09-21T10:17:25;15.00;99.90
4207;DHT22;2117;47.972;7.830;2022-09-21T10:20:02;15.00;99.90
4207;DHT22;2117;47.972;7.830;2022-09-21T10:22:28;15.20;99.90
4207;DHT22;2117;47.972;7.830;2022-09-21T10:24:55;15.30;99.90
4207;DHT22;2117;47.972;7.830;2022-09-21T10:27:26;15.50;99.90
4207;DHT22;2117;47.972;7.830;2022-09-21T10:29:53;15.60;99.90
4207;DHT22;2117;47.972;7.830;2022-09-21T10:37:38;15.90;99.90
4207;DHT22;2117;47.972;7.830;2022-09-21T10:42:52;16.20;99.90
4207;DHT22;2117;47.972;7.830;2022-09-21T10:45:20;16.30;99.90
4207;DHT22;2117;47.972;7.830;2022-09-21T10:50:47;16.60;99.90
4207;DHT22;2117;47.972;7.830;2022-09-21T10:53:29;16.70;99.90
4207;DHT22;2117;47.972;7.830;2022-09-21T10:58:21;17.10;99.90
4207;DHT22;2117;47.972;7.830;2022-09-21T11:00:48;17.30;99.90
4207;DHT22;2117;47.972;7.830;2022-09-21T11:06:49;17.50;99.90
4207;DHT22;2117;47.972;7.830;2022-09-21T11:09:02;17.70;99.90
4207;DHT22;2117;47.972;7.830;2022-09-21T11:11:48;17.80;99.90
4207;DHT22;2117;47.972;7.830;2022-09-21T11:16:58;18.20;99.90
4207;DHT22;2117;47.972;7.830;2022-09-21T11:22:27;18.50;99.40
4207;DHT22;2117;47.972;7.830;2022-09-21T11:27:54;19.20;97.30
4207;DHT22;2117;47.972;7.830;2022-09-21T11:30:22;19.80;97.60
4207;DHT22;2117;47.972;7.830;2022-09-21T11:43:48;20.90;95.80
4207;DHT22;2117;47.972;7.830;2022-09-21T11:51:39;22.10;94.30
4207;DHT22;2117;47.972;7.830;2022-09-21T12:00:10;22.80;93.40
4207;DHT22;2117;47.972;7.830;2022-09-21T12:06:13;23.30;92.60
4207;DHT22;2117;47.972;7.830;2022-09-21T12:11:26;23.60;91.30
4207;DHT22;2117;47.972;7.830;2022-09-21T12:16:47;24.20;88.30
4207;DHT22;2117;47.972;7.830;2022-09-21T12:19:36;24.20;90.20
4207;DHT22;2117;47.972;7.830;2022-09-21T12:22:10;24.40;90.30
4207;DHT22;2117;47.972;7.830;2022-09-21T12:24:46;24.40;89.20
4207;DHT22;2117;47.972;7.830;2022-09-21T12:27:35;24.60;90.90
4207;DHT22;2117;47.972;7.830;2022-09-21T12:30:17;24.70;88.70
4207;DHT22;2117;47.972;7.830;2022-09-21T12:33:03;24.80;88.60
4207;DHT22;2117;47.972;7.830;2022-09-21T12:35:43;24.80;85.40
4207;DHT22;2117;47.972;7.830;2022-09-21T12:40:56;25.20;86.60
4207;DHT22;2117;47.972;7.830;2022-09-21T12:46:23;25.20;81.90
4207;DHT22;2117;47.972;7.830;2022-09-21T12:48:49;25.20;83.40
4207;DHT22;2117;47.972;7.830;2022-09-21T12:51:26;25.30;83.30
4207;DHT22;2117;47.972;7.830;2022-09-21T12:53:56;25.60;82.80
4207;DHT22;2117;47.972;7.830;2022-09-21T12:56:50;25.70;82.70
4207;DHT22;2117;47.972;7.830;2022-09-21T12:59:21;25.90;81.00
4207;DHT22;2117;47.972;7.830;2022-09-21T13:01:55;26.00;80.80
4207;DHT22;2117;47.972;7.830;2022-09-21T13:04:32;26.20;80.10
4207;DHT22;2117;47.972;7.830;2022-09-21T13:07:19;26.50;79.20
4207;DHT22;2117;47.972;7.830;2022-09-21T13:09:49;26.80;79.30
4207;DHT22;2117;47.972;7.830;2022-09-21T13:12:20;27.10;79.10
4207;DHT22;2117;47.972;7.830;2022-09-21T13:14:50;27.50;75.50
4207;DHT22;2117;47.972;7.830;2022-09-21T13:17:22;27.60;74.00
4207;DHT22;2117;47.972;7.830;2022-09-21T13:20:06;27.50;72.70
4207;DHT22;2117;47.972;7.830;2022-09-21T13:22:39;27.70;70.90
4207;DHT22;2117;47.972;7.830;2022-09-21T13:25:18;27.90;72.60
4207;DHT22;2117;47.972;7.830;2022-09-21T13:28:05;28.10;72.80
4207;DHT22;2117;47.972;7.830;2022-09-21T13:30:43;28.10;72.90
4207;DHT22;2117;47.972;7.830;2022-09-21T13:38:26;27.60;70.50
4207;DHT22;2117;47.972;7.830;2022-09-21T13:41:26;27.40;70.50
4207;DHT22;2117;47.972;7.830;2022-09-21T13:51:31;27.80;69.40
4207;DHT22;2117;47.972;7.830;2022-09-21T13:53:59;27.70;69.30
4207;DHT22;2117;47.972;7.830;2022-09-21T13:56:26;27.80;71.40
4207;DHT22;2117;47.972;7.830;2022-09-21T13:58:55;28.00;69.40
4207;DHT22;2117;47.972;7.830;2022-09-21T14:01:32;28.00;70.30
4207;DHT22;2117;47.972;7.830;2022-09-21T14:04:02;28.00;70.60
4207;DHT22;2117;47.972;7.830;2022-09-21T14:06:40;28.10;67.60
4207;DHT22;2117;47.972;7.830;2022-09-21T14:09:22;27.90;69.10
4207;DHT22;2117;47.972;7.830;2022-09-21T14:12:16;27.70;68.10
4207;DHT22;2117;47.972;7.830;2022-09-21T14:14:43;27.70;69.00
4207;DHT22;2117;47.972;7.830;2022-09-21T14:17:37;27.70;69.80
4207;DHT22;2117;47.972;7.830;2022-09-21T14:20:23;27.80;69.60
4207;DHT22;2117;47.972;7.830;2022-09-21T14:25:52;27.80;67.30
4207;DHT22;2117;47.972;7.830;2022-09-21T14:28:47;27.90;67.00
4207;DHT22;2117;47.972;7.830;2022-09-21T14:31:23;27.90;67.30
4207;DHT22;2117;47.972;7.830;2022-09-21T14:33:53;27.80;68.20
4207;DHT22;2117;47.972;7.830;2022-09-21T14:36:27;27.80;68.50
4207;DHT22;2117;47.972;7.830;2022-09-21T14:39:01;27.70;70.40
4207;DHT22;2117;47.972;7.830;2022-09-21T14:41:35;27.60;69.20
4207;DHT22;2117;47.972;7.830;2022-09-21T14:44:01;27.70;70.80
4207;DHT22;2117;47.972;7.830;2022-09-21T15:00:36;27.10;67.40
4207;DHT22;2117;47.972;7.830;2022-09-21T15:09:39;26.80;66.70
4207;DHT22;2117;47.972;7.830;2022-09-21T15:12:51;26.80;70.50
4207;DHT22;2117;47.972;7.830;2022-09-21T15:18:20;26.30;68.60
4207;DHT22;2117;47.972;7.830;2022-09-21T15:20:59;26.30;70.70
4207;DHT22;2117;47.972;7.830;2022-09-21T15:23:33;26.30;69.30
4207;DHT22;2117;47.972;7.830;2022-09-21T15:26:08;26.10;68.20
4207;DHT22;2117;47.972;7.830;2022-09-21T15:28:36;26.00;68.90
4207;DHT22;2117;47.972;7.830;2022-09-21T15:31:04;25.90;70.20
4207;DHT22;2117;47.972;7.830;2022-09-21T15:33:36;25.70;69.70
4207;DHT22;2117;47.972;7.830;2022-09-21T15:36:02;25.60;69.00
4207;DHT22;2117;47.972;7.830;2022-09-21T15:38:30;25.30;70.40
4207;DHT22;2117;47.972;7.830;2022-09-21T15:40:57;25.20;70.40
4207;DHT22;2117;47.972;7.830;2022-09-21T15:43:22;25.00;70.80
4207;DHT22;2117;47.972;7.830;2022-09-21T15:45:49;24.50;71.60
4207;DHT22;2117;47.972;7.830;2022-09-21T15:48:24;24.30;69.90
4207;DHT22;2117;47.972;7.830;2022-09-21T15:50:53;23.80;71.30
4207;DHT22;2117;47.972;7.830;2022-09-21T15:53:27;23.50;71.50
4207;DHT22;2117;47.972;7.830;2022-09-21T15:55:55;23.20;73.60
4207;DHT22;2117;47.972;7.830;2022-09-21T15:58:34;22.90;73.10
4207;DHT22;2117;47.972;7.830;2022-09-21T16:01:09;22.70;75.70
4207;DHT22;2117;47.972;7.830;2022-09-21T16:03:35;22.30;73.50
4207;DHT22;2117;47.972;7.830;2022-09-21T16:06:26;22.10;74.80
4207;DHT22;2117;47.972;7.830;2022-09-21T16:08:53;21.80;75.40
4207;DHT22;2117;47.972;7.830;2022-09-21T16:14:14;21.10;76.40
4207;DHT22;2117;47.972;7.830;2022-09-21T16:22:39;20.30;79.70
4207;DHT22;2117;47.972;7.830;2022-09-21T16:25:32;20.00;81.00
4207;DHT22;2117;47.972;7.830;2022-09-21T16:35:57;19.30;82.10
4207;DHT22;2117;47.972;7.830;2022-09-21T16:38:23;19.10;83.40
4207;DHT22;2117;47.972;7.830;2022-09-21T16:40:48;19.00;84.40
4207;DHT22;2117;47.972;7.830;2022-09-21T16:43:16;18.90;84.40
4207;DHT22;2117;47.972;7.830;2022-09-21T16:45:42;18.70;86.30
4207;DHT22;2117;47.972;7.830;2022-09-21T16:48:10;18.60;86.90
4207;DHT22;2117;47.972;7.830;2022-09-21T16:50:35;18.50;85.30
4207;DHT22;2117;47.972;7.830;2022-09-21T16:53:01;18.30;88.70
4207;DHT22;2117;47.972;7.830;2022-09-21T16:55:26;18.20;87.60
4207;DHT22;2117;47.972;7.830;2022-09-21T16:57:52;18.20;88.30
4207;DHT22;2117;47.972;7.830;2022-09-21T17:00:18;18.00;88.60
4207;DHT22;2117;47.972;7.830;2022-09-21T17:02:45;17.90;88.40
4207;DHT22;2117;47.972;7.830;2022-09-21T17:05:11;17.80;88.90
4207;DHT22;2117;47.972;7.830;2022-09-21T17:07:51;17.70;90.20
4207;DHT22;2117;47.972;7.830;2022-09-21T17:10:18;17.60;90.60
4207;DHT22;2117;47.972;7.830;2022-09-21T17:12:45;17.50;91.30
4207;DHT22;2117;47.972;7.830;2022-09-21T17:15:11;17.60;91.30
4207;DHT22;2117;47.972;7.830;2022-09-21T17:17:37;17.50;91.90
4207;DHT22;2117;47.972;7.830;2022-09-21T17:23:00;17.30;91.80
4207;DHT22;2117;47.972;7.830;2022-09-21T17:25:27;17.10;91.20
4207;DHT22;2117;47.972;7.830;2022-09-21T17:28:00;17.00;91.10
4207;DHT22;2117;47.972;7.830;2022-09-21T17:30:27;16.90;92.10
4207;DHT22;2117;47.972;7.830;2022-09-21T17:32:53;16.80;92.60
4207;DHT22;2117;47.972;7.830;2022-09-21T17:35:31;16.70;93.20
4207;DHT22;2117;47.972;7.830;2022-09-21T17:37:57;16.50;93.70
4207;DHT22;2117;47.972;7.830;2022-09-21T17:40:23;16.50;93.50
4207;DHT22;2117;47.972;7.830;2022-09-21T17:42:49;16.40;93.80
4207;DHT22;2117;47.972;7.830;2022-09-21T17:45:37;16.30;93.90
4207;DHT22;2117;47.972;7.830;2022-09-21T17:48:06;16.20;94.00
4207;DHT22;2117;47.972;7.830;2022-09-21T17:50:36;16.10;94.30
4207;DHT22;2117;47.972;7.830;2022-09-21T17:53:02;16.00;94.70
4207;DHT22;2117;47.972;7.830;2022-09-21T17:55:55;15.80;95.10
4207;DHT22;2117;47.972;7.830;2022-09-21T18:01:33;15.70;95.50
4207;DHT22;2117;47.972;7.830;2022-09-21T18:04:01;15.50;95.90
4207;DHT22;2117;47.972;7.830;2022-09-21T18:06:28;15.40;96.00
4207;DHT22;2117;47.972;7.830;2022-09-21T18:08:54;15.30;96.40
4207;DHT22;2117;47.972;7.830;2022-09-21T18:16:46;15.00;97.40
4207;DHT22;2117;47.972;7.830;2022-09-21T18:19:28;14.90;97.90
4207;DHT22;2117;47.972;7.830;2022-09-21T18:24:51;14.60;98.40
4207;DHT22;2117;47.972;7.830;2022-09-21T18:27:18;14.50;98.70
4207;DHT22;2117;47.972;7.830;2022-09-21T18:29:44;14.40;99.00
4207;DHT22;2117;47.972;7.830;2022-09-21T18:32:30;14.30;99.50
4207;DHT22;2117;47.972;7.830;2022-09-21T18:35:25;14.20;99.90
4207;DHT22;2117;47.972;7.830;2022-09-21T18:38:03;14.10;99.80
4207;DHT22;2117;47.972;7.830;2022-09-21T18:40:59;14.00;99.90
4207;DHT22;2117;47.972;7.830;2022-09-21T18:46:27;13.80;99.90
4207;DHT22;2117;47.972;7.830;2022-09-21T18:51:52;13.60;99.90
4207;DHT22;2117;47.972;7.830;2022-09-21T18:54:23;13.50;99.90
4207;DHT22;2117;47.972;7.830;2022-09-21T18:56:51;13.40;99.90
4207;DHT22;2117;47.972;7.830;2022-09-21T18:59:17;13.40;99.90
4207;DHT22;2117;47.972;7.830;2022-09-21T19:01:44;13.30;99.90
4207;DHT22;2117;47.972;7.830;2022-09-21T19:04:11;13.20;99.90
4207;DHT22;2117;47.972;7.830;2022-09-21T19:07:02;13.10;99.90
4207;DHT22;2117;47.972;7.830;2022-09-21T19:09:51;13.10;99.90
4207;DHT22;2117;47.972;7.830;2022-09-21T19:15:34;12.90;99.90
4207;DHT22;2117;47.972;7.830;2022-09-21T19:26:34;12.60;99.90
4207;DHT22;2117;47.972;7.830;2022-09-21T19:29:37;12.60;99.90
4207;DHT22;2117;47.972;7.830;2022-09-21T19:32:17;12.40;99.90
4207;DHT22;2117;47.972;7.830;2022-09-21T19:34:47;12.40;99.90
4207;DHT22;2117;47.972;7.830;2022-09-21T19:37:12;12.30;99.90
4207;DHT22;2117;47.972;7.830;2022-09-21T19:39:38;12.30;99.90
4207;DHT22;2117;47.972;7.830;2022-09-21T19:42:09;12.50;99.90
4207;DHT22;2117;47.972;7.830;2022-09-21T19:44:48;12.50;99.90
4207;DHT22;2117;47.972;7.830;2022-09-21T19:49:53;12.30;99.90
4207;DHT22;2117;47.972;7.830;2022-09-21T19:52:34;12.20;99.90
4207;DHT22;2117;47.972;7.830;2022-09-21T19:55:01;12.10;99.90
4207;DHT22;2117;47.972;7.830;2022-09-21T19:57:45;12.00;99.90
4207;DHT22;2117;47.972;7.830;2022-09-21T20:00:29;12.00;99.90
4207;DHT22;2117;47.972;7.830;2022-09-21T20:03:32;11.90;99.90
4207;DHT22;2117;47.972;7.830;2022-09-21T20:06:17;11.80;99.90
4207;DHT22;2117;47.972;7.830;2022-09-21T20:09:11;11.70;99.90
4207;DHT22;2117;47.972;7.830;2022-09-21T20:17:01;11.50;99.90
4207;DHT22;2117;47.972;7.830;2022-09-21T20:19:41;11.40;99.90
4207;DHT22;2117;47.972;7.830;2022-09-21T20:22:14;11.40;99.90
4207;DHT22;2117;47.972;7.830;2022-09-21T20:27:43;11.40;99.90
4207;DHT22;2117;47.972;7.830;2022-09-21T20:30:12;11.30;99.90
4207;DHT22;2117;47.972;7.830;2022-09-21T20:32:40;11.30;99.90
4207;DHT22;2117;47.972;7.830;2022-09-21T20:35:16;11.30;99.90
4207;DHT22;2117;47.972;7.830;2022-09-21T20:37:42;11.20;99.90
4207;DHT22;2117;47.972;7.830;2022-09-21T20:40:08;11.20;99.90
4207;DHT22;2117;47.972;7.830;2022-09-21T20:42:35;11.10;99.90
4207;DHT22;2117;47.972;7.830;2022-09-21T20:45:04;11.10;99.90
4207;DHT22;2117;47.972;7.830;2022-09-21T20:47:29;11.10;99.90
4207;DHT22;2117;47.972;7.830;2022-09-21T20:49:55;11.10;99.90
4207;DHT22;2117;47.972;7.830;2022-09-21T20:52:21;11.00;99.90
4207;DHT22;2117;47.972;7.830;2022-09-21T20:54:47;11.00;99.90
4207;DHT22;2117;47.972;7.830;2022-09-21T20:57:13;10.90;99.90
4207;DHT22;2117;47.972;7.830;2022-09-21T20:59:39;10.90;99.90
4207;DHT22;2117;47.972;7.830;2022-09-21T21:02:05;10.70;99.90
4207;DHT22;2117;47.972;7.830;2022-09-21T21:04:32;10.70;99.90
4207;DHT22;2117;47.972;7.830;2022-09-21T21:06:58;10.70;99.90
4207;DHT22;2117;47.972;7.830;2022-09-21T21:09:23;10.60;99.90
4207;DHT22;2117;47.972;7.830;2022-09-21T21:11:50;10.50;99.90
4207;DHT22;2117;47.972;7.830;2022-09-21T21:14:16;10.50;99.90
4207;DHT22;2117;47.972;7.830;2022-09-21T21:16:42;10.50;99.90
4207;DHT22;2117;47.972;7.830;2022-09-21T21:19:08;10.40;99.90
4207;DHT22;2117;47.972;7.830;2022-09-21T21:21:33;10.40;99.90
4207;DHT22;2117;47.972;7.830;2022-09-21T21:23:59;10.30;99.90
4207;DHT22;2117;47.972;7.830;2022-09-21T21:26:43;10.30;99.90
4207;DHT22;2117;47.972;7.830;2022-09-21T21:29:09;10.30;99.90
4207;DHT22;2117;47.972;7.830;2022-09-21T21:31:34;10.20;99.90
4207;DHT22;2117;47.972;7.830;2022-09-21T21:34:00;10.20;99.90
4207;DHT22;2117;47.972;7.830;2022-09-21T21:36:26;10.20;99.90
4207;DHT22;2117;47.972;7.830;2022-09-21T21:38:51;10.20;99.90
4207;DHT22;2117;47.972;7.830;2022-09-21T21:41:17;10.20;99.90
4207;DHT22;2117;47.972;7.830;2022-09-21T21:43:42;10.10;99.90
4207;DHT22;2117;47.972;7.830;2022-09-21T21:46:09;10.10;99.90
4207;DHT22;2117;47.972;7.830;2022-09-21T21:48:36;10.10;99.90
4207;DHT22;2117;47.972;7.830;2022-09-21T21:51:03;10.10;99.90
4207;DHT22;2117;47.972;7.830;2022-09-21T21:53:37;10.10;99.90
4207;DHT22;2117;47.972;7.830;2022-09-21T21:56:11;10.10;99.90
4207;DHT22;2117;47.972;7.830;2022-09-21T21:58:38;10.10;99.90
4207;DHT22;2117;47.972;7.830;2022-09-21T22:01:08;10.10;99.90
4207;DHT22;2117;47.972;7.830;2022-09-21T22:03:35;10.10;99.90
4207;DHT22;2117;47.972;7.830;2022-09-21T22:06:02;10.20;99.90
4207;DHT22;2117;47.972;7.830;2022-09-21T22:08:29;10.20;99.90
4207;DHT22;2117;47.972;7.830;2022-09-21T22:10:55;10.30;99.90
4207;DHT22;2117;47.972;7.830;2022-09-21T22:13:20;10.30;99.90
4207;DHT22;2117;47.972;7.830;2022-09-21T22:15:48;10.40;99.90
4207;DHT22;2117;47.972;7.830;2022-09-21T22:18:15;10.50;99.90
4207;DHT22;2117;47.972;7.830;2022-09-21T22:20:40;10.50;99.90
4207;DHT22;2117;47.972;7.830;2022-09-21T22:23:06;10.50;99.90
4207;DHT22;2117;47.972;7.830;2022-09-21T22:25:33;10.50;99.90
4207;DHT22;2117;47.972;7.830;2022-09-21T22:27:59;10.60;99.90
